Time,TemperatureF,DewpointF,PressureIn,WindDirection,WindDirectionDegrees,WindSpeedMPH,WindSpeedGustMPH,Humidity,HourlyPrecipIn,Conditions,Clouds,dailyrainin,SoftwareType,DateUTC
2013-04-22 00:03:00,69.1,68.9,30.03,NE,45,1.6,3.1,99,0.20,,,0.00,WUHU216EASYWX,2013-04-22 04:03:00,
2013-04-22 00:18:00,68.9,68.7,30.02,NE,45,4.5,6.9,99,0.21,,,0.00,WUHU216EASYWX,2013-04-22 04:18:00,
2013-04-22 00:23:00,68.7,68.5,30.02,NNE,23,1.6,4.5,99,0.22,,,0.04,WUHU216EASYWX,2013-04-22 04:23:00,
2013-04-22 00:28:00,68.7,68.5,30.02,NNE,23,1.6,4.5,99,0.22,,,0.04,WUHU216EASYWX,2013-04-22 04:28:00,
2013-04-22 00:33:00,68.9,68.7,30.01,NE,45,3.8,6.9,99,0.22,,,0.06,WUHU216EASYWX,2013-04-22 04:33:00,
2013-04-22 00:38:00,68.9,68.7,30.01,NE,45,3.8,6.9,99,0.22,,,0.06,WUHU216EASYWX,2013-04-22 04:38:00,
2013-04-22 00:43:00,69.1,68.9,30.02,NW,315,3.8,6.9,99,0.19,,,0.10,WUHU216EASYWX,2013-04-22 04:43:00,
2013-04-22 00:48:00,69.1,68.9,30.02,NW,315,3.8,6.9,99,0.19,,,0.10,WUHU216EASYWX,2013-04-22 04:48:00,
2013-04-22 00:53:00,69.1,68.9,30.02,NNW,338,3.8,5.4,99,0.17,,,0.11,WUHU216EASYWX,2013-04-22 04:53:00,
2013-04-22 00:59:00,69.1,68.9,30.02,NNW,338,3.8,5.4,99,0.17,,,0.11,WUHU216EASYWX,2013-04-22 04:59:00,
2013-04-22 01:04:00,68.9,68.7,30.02,North,0,3.1,5.4,99,0.14,,,0.12,WUHU216EASYWX,2013-04-22 05:04:00,
2013-04-22 01:09:00,68.9,68.7,30.02,North,0,3.1,5.4,99,0.14,,,0.12,WUHU216EASYWX,2013-04-22 05:09:00,
2013-04-22 01:14:00,69.1,68.9,30.02,NW,315,4.5,6.0,99,0.13,,,0.15,WUHU216EASYWX,2013-04-22 05:14:00,
2013-04-22 01:19:00,69.1,68.9,30.02,NW,315,4.5,6.0,99,0.13,,,0.15,WUHU216EASYWX,2013-04-22 05:19:00,
2013-04-22 01:24:00,69.3,69.1,30.01,NNW,338,6.0,8.3,99,0.11,,,0.17,WUHU216EASYWX,2013-04-22 05:24:00,
2013-04-22 01:29:00,69.3,69.1,30.01,NNW,338,6.0,8.3,99,0.11,,,0.17,WUHU216EASYWX,2013-04-22 05:29:00,
2013-04-22 01:34:00,69.3,69.1,30.01,NW,315,3.8,6.9,99,0.08,,,0.17,WUHU216EASYWX,2013-04-22 05:34:00,
2013-04-22 01:39:00,69.3,69.1,30.01,NW,315,3.8,6.9,99,0.08,,,0.17,WUHU216EASYWX,2013-04-22 05:39:00,
2013-04-22 01:44:00,69.3,69.1,30.01,West,270,6.9,8.3,99,0.07,,,0.18,WUHU216EASYWX,2013-04-22 05:44:00,
2013-04-22 01:49:00,69.3,69.1,30.01,West,270,6.9,8.3,99,0.07,,,0.18,WUHU216EASYWX,2013-04-22 05:49:00,
2013-04-22 01:54:00,69.3,69.1,30.01,NW,315,6.0,8.3,99,0.07,,,0.18,WUHU216EASYWX,2013-04-22 05:54:00,
2013-04-22 01:59:00,69.3,69.1,30.01,NW,315,6.0,8.3,99,0.07,,,0.18,WUHU216EASYWX,2013-04-22 05:59:00,
2013-04-22 02:04:00,69.3,69.1,30.00,North,0,6.0,7.6,99,0.05,,,0.19,WUHU216EASYWX,2013-04-22 06:04:00,
2013-04-22 02:09:00,69.3,69.1,30.00,North,0,6.0,7.6,99,0.05,,,0.19,WUHU216EASYWX,2013-04-22 06:09:00,
2013-04-22 02:14:00,69.4,69.3,30.00,NW,315,4.5,6.9,99,0.04,,,0.19,WUHU216EASYWX,2013-04-22 06:14:00,
2013-04-22 02:19:00,69.4,69.3,30.00,NW,315,4.5,6.9,99,0.04,,,0.19,WUHU216EASYWX,2013-04-22 06:19:00,
2013-04-22 02:24:00,69.1,68.9,30.00,NW,315,6.0,6.9,99,0.04,,,0.21,WUHU216EASYWX,2013-04-22 06:24:00,
2013-04-22 02:30:00,69.1,68.9,30.00,NW,315,6.0,6.9,99,0.04,,,0.21,WUHU216EASYWX,2013-04-22 06:30:00,
2013-04-22 02:37:00,68.9,68.7,29.99,North,0,5.4,8.3,99,0.04,,,0.21,WUHU216EASYWX,2013-04-22 06:37:00,
2013-04-22 02:43:00,68.7,68.5,29.99,NNW,338,3.8,6.9,99,0.05,,,0.22,WUHU216EASYWX,2013-04-22 06:43:00,
2013-04-22 02:48:00,68.7,68.5,29.99,NNW,338,3.8,6.9,99,0.05,,,0.22,WUHU216EASYWX,2013-04-22 06:48:00,
2013-04-22 02:53:00,68.5,68.4,29.99,North,0,3.8,5.4,99,0.05,,,0.23,WUHU216EASYWX,2013-04-22 06:53:00,
2013-04-22 02:58:00,68.5,68.4,29.99,North,0,3.8,5.4,99,0.05,,,0.23,WUHU216EASYWX,2013-04-22 06:58:00,
2013-04-22 03:03:00,68.5,68.4,29.98,NNE,23,1.6,3.8,99,0.05,,,0.24,WUHU216EASYWX,2013-04-22 07:03:00,
2013-04-22 03:08:00,68.5,68.4,29.98,NNE,23,1.6,3.8,99,0.05,,,0.24,WUHU216EASYWX,2013-04-22 07:08:00,
2013-04-22 03:18:00,68.7,68.5,29.97,NE,45,3.1,3.8,99,0.04,,,0.24,WUHU216EASYWX,2013-04-22 07:18:00,
2013-04-22 03:28:00,68.7,68.5,29.96,ENE,68,3.1,6.0,99,0.04,,,0.24,WUHU216EASYWX,2013-04-22 07:28:00,
2013-04-22 03:38:00,68.5,68.4,29.96,NE,45,3.8,6.0,99,0.02,,,0.24,WUHU216EASYWX,2013-04-22 07:38:00,
2013-04-22 03:48:00,68.4,68.2,29.96,North,0,3.1,4.5,99,0.01,,,0.24,WUHU216EASYWX,2013-04-22 07:48:00,
2013-04-22 03:53:00,68.5,68.4,29.95,North,0,3.8,6.0,99,0.00,,,0.24,WUHU216EASYWX,2013-04-22 07:53:00,
2013-04-22 03:58:00,68.5,68.4,29.95,North,0,3.8,6.0,99,0.00,,,0.24,WUHU216EASYWX,2013-04-22 07:58:00,
2013-04-22 04:07:00,68.5,68.4,29.95,NE,45,1.6,3.8,99,0.00,,,0.24,WUHU216EASYWX,2013-04-22 08:07:00,
2013-04-22 04:17:00,68.5,68.4,29.93,North,0,3.8,6.0,99,0.00,,,0.24,WUHU216EASYWX,2013-04-22 08:17:00,
2013-04-22 04:27:00,68.4,68.2,29.93,East,90,4.5,9.2,99,0.00,,,0.24,WUHU216EASYWX,2013-04-22 08:27:00,
2013-04-22 04:33:00,68.4,68.2,29.93,NE,45,1.6,3.1,99,0.00,,,0.24,WUHU216EASYWX,2013-04-22 08:33:00,
2013-04-22 04:38:00,68.4,68.2,29.93,NE,45,1.6,3.1,99,0.00,,,0.24,WUHU216EASYWX,2013-04-22 08:38:00,
2013-04-22 04:47:00,68.5,68.4,29.93,North,0,2.2,3.1,99,0.00,,,0.24,WUHU216EASYWX,2013-04-22 08:47:00,
2013-04-22 04:58:00,68.2,68.0,29.93,NE,45,0.0,2.2,99,0.00,,,0.24,WUHU216EASYWX,2013-04-22 08:58:00,
2013-04-22 05:03:00,68.2,68.0,29.93,SE,135,3.1,4.5,99,0.00,,,0.24,WUHU216EASYWX,2013-04-22 09:03:00,
2013-04-22 05:08:00,68.2,68.0,29.93,SE,135,3.1,4.5,99,0.00,,,0.24,WUHU216EASYWX,2013-04-22 09:08:00,
2013-04-22 05:18:00,68.4,68.2,29.93,SE,135,0.0,1.6,99,0.00,,,0.24,WUHU216EASYWX,2013-04-22 09:18:00,
2013-04-22 05:28:00,68.4,68.2,29.93,NE,45,1.6,3.1,99,0.00,,,0.24,WUHU216EASYWX,2013-04-22 09:28:00,
2013-04-22 05:38:00,68.4,68.2,29.93,North,0,1.6,3.1,99,0.00,,,0.24,WUHU216EASYWX,2013-04-22 09:38:00,
2013-04-22 05:48:00,68.5,68.4,29.93,NE,45,0.0,1.6,99,0.00,,,0.24,WUHU216EASYWX,2013-04-22 09:48:00,
2013-04-22 05:53:00,68.5,68.4,29.92,NE,45,0.7,2.2,99,0.00,,,0.24,WUHU216EASYWX,2013-04-22 09:53:00,
2013-04-22 05:58:00,68.5,68.4,29.92,NE,45,0.7,2.2,99,0.00,,,0.24,WUHU216EASYWX,2013-04-22 09:58:00,
2013-04-22 06:07:00,68.5,68.4,29.93,NE,45,0.7,1.6,99,0.00,,,0.24,WUHU216EASYWX,2013-04-22 10:07:00,
2013-04-22 06:17:00,68.7,68.5,29.93,East,90,0.7,2.2,99,0.00,,,0.24,WUHU216EASYWX,2013-04-22 10:17:00,
2013-04-22 06:27:00,68.7,68.5,29.93,East,90,1.6,3.1,99,0.00,,,0.24,WUHU216EASYWX,2013-04-22 10:27:00,
2013-04-22 06:38:00,68.7,68.5,29.94,North,0,0.7,2.2,99,0.00,,,0.24,WUHU216EASYWX,2013-04-22 10:38:00,
2013-04-22 06:48:00,68.9,68.7,29.94,NE,45,1.6,3.1,99,0.00,,,0.24,WUHU216EASYWX,2013-04-22 10:48:00,
2013-04-22 06:58:00,69.1,68.9,29.95,NE,45,2.2,3.8,99,0.00,,,0.24,WUHU216EASYWX,2013-04-22 10:58:00,
2013-04-22 07:08:00,69.1,68.9,29.95,NE,45,3.1,4.5,99,0.00,,,0.24,WUHU216EASYWX,2013-04-22 11:08:00,
2013-04-22 07:18:00,68.9,68.7,29.95,East,90,1.6,3.8,99,0.00,,,0.24,WUHU216EASYWX,2013-04-22 11:18:00,
2013-04-22 07:28:00,68.9,68.7,29.95,NE,45,0.7,2.2,99,0.00,,,0.24,WUHU216EASYWX,2013-04-22 11:28:00,
2013-04-22 07:38:00,68.7,68.5,29.96,ENE,68,1.6,3.1,99,0.00,,,0.24,WUHU216EASYWX,2013-04-22 11:38:00,
2013-04-22 07:43:00,68.7,68.5,29.96,NE,45,1.6,3.1,99,0.00,,,0.24,WUHU216EASYWX,2013-04-22 11:43:00,
2013-04-22 07:48:00,68.7,68.5,29.96,NE,45,1.6,3.1,99,0.00,,,0.24,WUHU216EASYWX,2013-04-22 11:48:00,
2013-04-22 07:57:00,68.9,68.7,29.96,NE,45,2.2,3.1,99,0.00,,,0.24,WUHU216EASYWX,2013-04-22 11:57:00,
2013-04-22 08:08:00,69.1,68.9,29.96,NE,45,1.6,3.8,99,0.00,,,0.24,WUHU216EASYWX,2013-04-22 12:08:00,
2013-04-22 08:18:00,69.8,69.6,29.96,East,90,0.7,2.2,99,0.00,,,0.24,WUHU216EASYWX,2013-04-22 12:18:00,
2013-04-22 08:28:00,70.5,70.3,29.96,NE,45,3.8,6.9,99,0.01,,,0.24,WUHU216EASYWX,2013-04-22 12:28:00,
2013-04-22 08:33:00,70.9,70.7,29.96,NE,45,3.8,5.4,99,0.01,,,0.25,WUHU216EASYWX,2013-04-22 12:33:00,
2013-04-22 08:38:00,70.9,70.7,29.96,NE,45,3.8,5.4,99,0.01,,,0.25,WUHU216EASYWX,2013-04-22 12:38:00,
2013-04-22 08:43:00,71.2,71.1,29.97,North,0,3.8,7.6,99,0.01,,,0.25,WUHU216EASYWX,2013-04-22 12:43:00,
2013-04-22 08:48:00,71.2,71.1,29.97,North,0,3.8,7.6,99,0.01,,,0.25,WUHU216EASYWX,2013-04-22 12:48:00,
2013-04-22 08:57:00,71.4,71.2,29.97,NE,45,3.1,4.5,99,0.01,,,0.25,WUHU216EASYWX,2013-04-22 12:57:00,
2013-04-22 09:03:00,71.8,71.6,29.98,NE,45,1.6,3.8,99,0.01,,,0.25,WUHU216EASYWX,2013-04-22 13:03:00,
2013-04-22 09:08:00,71.8,71.6,29.98,NE,45,1.6,3.8,99,0.01,,,0.25,WUHU216EASYWX,2013-04-22 13:08:00,
2013-04-22 09:13:00,73.6,73.4,29.98,NE,45,4.5,7.6,99,0.01,,,0.25,WUHU216EASYWX,2013-04-22 13:13:00,
2013-04-22 09:18:00,73.6,73.4,29.98,NE,45,4.5,7.6,99,0.01,,,0.25,WUHU216EASYWX,2013-04-22 13:18:00,
2013-04-22 09:23:00,75.4,73.9,29.99,North,0,4.5,6.9,95,0.00,,,0.25,WUHU216EASYWX,2013-04-22 13:23:00,
2013-04-22 09:28:00,75.4,73.9,29.99,North,0,4.5,6.9,95,0.00,,,0.25,WUHU216EASYWX,2013-04-22 13:28:00,
2013-04-22 09:33:00,73.9,72.1,29.99,NE,45,5.4,9.9,94,0.00,,,0.25,WUHU216EASYWX,2013-04-22 13:33:00,
2013-04-22 09:38:00,73.9,72.1,29.99,NE,45,5.4,9.9,94,0.00,,,0.25,WUHU216EASYWX,2013-04-22 13:38:00,
2013-04-22 09:48:00,73.9,72.5,29.99,NE,45,2.2,3.8,95,0.00,,,0.25,WUHU216EASYWX,2013-04-22 13:48:00,
2013-04-22 09:58:00,73.9,71.2,30.00,NE,45,7.6,11.4,91,0.00,,,0.25,WUHU216EASYWX,2013-04-22 13:58:00,
2013-04-22 10:03:00,73.9,71.8,30.00,NE,45,4.5,8.3,93,0.00,,,0.25,WUHU216EASYWX,2013-04-22 14:03:00,
2013-04-22 10:08:00,73.9,71.8,30.00,NE,45,4.5,8.3,93,0.00,,,0.25,WUHU216EASYWX,2013-04-22 14:08:00,
2013-04-22 10:13:00,74.3,72.0,29.99,NE,45,5.4,9.2,92,0.00,,,0.25,WUHU216EASYWX,2013-04-22 14:13:00,
2013-04-22 10:18:00,74.3,72.0,29.99,NE,45,5.4,9.2,92,0.00,,,0.25,WUHU216EASYWX,2013-04-22 14:18:00,
2013-04-22 10:27:00,74.7,71.6,30.00,NE,45,7.6,9.9,90,0.00,,,0.25,WUHU216EASYWX,2013-04-22 14:27:00,
2013-04-22 10:37:00,75.0,72.5,30.00,SE,135,3.1,6.0,92,0.00,,,0.25,WUHU216EASYWX,2013-04-22 14:37:00,
2013-04-22 10:47:00,76.1,73.0,30.00,NE,45,5.4,8.3,90,0.00,,,0.25,WUHU216EASYWX,2013-04-22 14:47:00,
2013-04-22 10:58:00,76.5,72.0,30.00,SE,135,4.5,10.8,86,0.00,,,0.25,WUHU216EASYWX,2013-04-22 14:58:00,
2013-04-22 11:03:00,77.9,72.3,30.00,SE,135,6.0,12.1,83,0.00,,,0.25,WUHU216EASYWX,2013-04-22 15:03:00,
2013-04-22 11:08:00,77.9,72.3,30.00,SE,135,6.0,12.1,83,0.00,,,0.25,WUHU216EASYWX,2013-04-22 15:08:00,
2013-04-22 11:13:00,78.6,72.7,30.00,NE,45,3.8,6.9,82,0.00,,,0.25,WUHU216EASYWX,2013-04-22 15:13:00,
2013-04-22 11:18:00,78.6,72.7,30.00,NE,45,3.8,6.9,82,0.00,,,0.25,WUHU216EASYWX,2013-04-22 15:18:00,
2013-04-22 11:23:00,79.0,72.0,30.00,ENE,68,10.8,15.2,79,0.00,,,0.25,WUHU216EASYWX,2013-04-22 15:23:00,
2013-04-22 11:28:00,79.0,72.0,30.00,ENE,68,10.8,15.2,79,0.00,,,0.25,WUHU216EASYWX,2013-04-22 15:28:00,
2013-04-22 11:33:00,78.6,72.7,30.00,East,90,6.0,12.1,82,0.00,,,0.25,WUHU216EASYWX,2013-04-22 15:33:00,
2013-04-22 11:38:00,78.6,72.7,30.00,East,90,6.0,12.1,82,0.00,,,0.25,WUHU216EASYWX,2013-04-22 15:38:00,
2013-04-22 11:48:00,79.5,72.5,30.00,SE,135,7.6,12.1,79,0.00,,,0.25,WUHU216EASYWX,2013-04-22 15:48:00,
2013-04-22 11:53:00,81.1,73.2,30.00,NE,45,7.6,10.8,77,0.00,,,0.25,WUHU216EASYWX,2013-04-22 15:53:00,
2013-04-22 11:58:00,81.1,73.2,30.00,NE,45,7.6,10.8,77,0.00,,,0.25,WUHU216EASYWX,2013-04-22 15:58:00,
2013-04-22 12:08:00,81.5,73.6,30.00,East,90,3.1,4.5,77,0.00,,,0.25,WUHU216EASYWX,2013-04-22 16:08:00,
2013-04-22 12:18:00,82.4,72.5,30.00,East,90,4.5,8.3,72,0.00,,,0.25,WUHU216EASYWX,2013-04-22 16:18:00,
2013-04-22 12:23:00,83.1,72.3,30.00,East,90,6.9,10.8,70,0.00,,,0.25,WUHU216EASYWX,2013-04-22 16:23:00,
2013-04-22 12:28:00,83.1,72.3,30.00,East,90,6.9,10.8,70,0.00,,,0.25,WUHU216EASYWX,2013-04-22 16:28:00,
2013-04-22 12:33:00,82.0,73.0,29.99,NE,45,6.0,10.8,74,0.00,,,0.25,WUHU216EASYWX,2013-04-22 16:33:00,
2013-04-22 12:38:00,82.0,73.0,29.99,NE,45,6.0,10.8,74,0.00,,,0.25,WUHU216EASYWX,2013-04-22 16:38:00,
2013-04-22 12:48:00,83.7,73.4,29.99,SW,225,3.1,5.4,71,0.00,,,0.25,WUHU216EASYWX,2013-04-22 16:48:00,
2013-04-22 12:58:00,83.7,72.9,29.98,NE,45,4.5,8.3,70,0.00,,,0.25,WUHU216EASYWX,2013-04-22 16:58:00,
2013-04-22 13:03:00,83.7,73.8,29.98,SSE,158,3.1,6.9,72,0.00,,,0.25,WUHU216EASYWX,2013-04-22 17:03:00,
2013-04-22 13:08:00,83.7,73.8,29.98,SSE,158,3.1,6.9,72,0.00,,,0.25,WUHU216EASYWX,2013-04-22 17:08:00,
2013-04-22 13:17:00,82.2,72.3,29.98,East,90,3.1,5.4,72,0.00,,,0.25,WUHU216EASYWX,2013-04-22 17:17:00,
2013-04-22 13:27:00,82.8,72.0,29.97,East,90,3.8,5.4,70,0.00,,,0.25,WUHU216EASYWX,2013-04-22 17:27:00,
2013-04-22 13:37:00,85.8,73.6,29.97,NW,315,0.0,1.6,67,0.00,,,0.25,WUHU216EASYWX,2013-04-22 17:37:00,
2013-04-22 13:47:00,84.4,71.8,29.96,East,90,0.0,1.6,66,0.00,,,0.25,WUHU216EASYWX,2013-04-22 17:47:00,
2013-04-22 13:58:00,83.7,73.4,29.96,NE,45,0.0,0.7,71,0.00,,,0.25,WUHU216EASYWX,2013-04-22 17:58:00,
2013-04-22 14:08:00,85.5,72.3,29.96,West,270,0.7,3.8,65,0.00,,,0.25,WUHU216EASYWX,2013-04-22 18:08:00,
2013-04-22 14:18:00,85.1,71.1,29.95,NE,45,2.2,4.5,63,0.00,,,0.25,WUHU216EASYWX,2013-04-22 18:18:00,
2013-04-22 14:28:00,84.4,70.5,29.94,NE,45,0.7,3.1,63,0.00,,,0.25,WUHU216EASYWX,2013-04-22 18:28:00,
2013-04-22 14:38:00,86.2,69.3,29.94,NE,45,3.8,8.3,57,0.00,,,0.25,WUHU216EASYWX,2013-04-22 18:38:00,
2013-04-22 14:43:00,85.8,70.0,29.94,North,0,5.4,7.6,59,0.00,,,0.25,WUHU216EASYWX,2013-04-22 18:43:00,
2013-04-22 14:48:00,85.8,70.0,29.94,North,0,5.4,7.6,59,0.00,,,0.25,WUHU216EASYWX,2013-04-22 18:48:00,
2013-04-22 14:57:00,85.8,69.4,29.93,NE,45,4.5,7.6,58,0.00,,,0.25,WUHU216EASYWX,2013-04-22 18:57:00,
2013-04-22 15:07:00,84.9,68.5,29.93,NE,45,0.0,2.2,58,0.00,,,0.25,WUHU216EASYWX,2013-04-22 19:07:00,
2013-04-22 15:17:00,81.5,70.0,29.93,South,180,3.8,7.6,68,0.00,,,0.25,WUHU216EASYWX,2013-04-22 19:17:00,
2013-04-22 15:27:00,78.3,68.9,29.92,South,180,9.9,19.0,73,0.00,,,0.25,WUHU216EASYWX,2013-04-22 19:27:00,
2013-04-22 15:38:00,77.5,70.5,29.92,South,180,6.0,9.2,79,0.00,,,0.25,WUHU216EASYWX,2013-04-22 19:38:00,
2013-04-22 15:48:00,77.9,72.0,29.91,South,180,6.9,9.9,82,0.00,,,0.25,WUHU216EASYWX,2013-04-22 19:48:00,
2013-04-22 15:58:00,78.4,71.8,29.91,SSE,158,4.5,6.9,80,0.00,,,0.25,WUHU216EASYWX,2013-04-22 19:58:00,
2013-04-22 16:08:00,79.9,72.9,29.91,SE,135,2.2,3.8,79,0.00,,,0.25,WUHU216EASYWX,2013-04-22 20:08:00,
2013-04-22 16:18:00,83.7,70.2,29.91,SE,135,1.6,3.1,64,0.00,,,0.25,WUHU216EASYWX,2013-04-22 20:18:00,
2013-04-22 16:23:00,87.1,70.5,29.89,South,180,2.2,4.5,58,0.00,,,0.25,WUHU216EASYWX,2013-04-22 20:23:00,
2013-04-22 16:28:00,87.1,70.5,29.89,South,180,2.2,4.5,58,0.00,,,0.25,WUHU216EASYWX,2013-04-22 20:28:00,
2013-04-22 16:37:00,86.7,69.3,29.89,SW,225,3.1,5.4,56,0.00,,,0.25,WUHU216EASYWX,2013-04-22 20:37:00,
2013-04-22 16:47:00,82.8,69.4,29.89,South,180,2.2,3.1,64,0.00,,,0.25,WUHU216EASYWX,2013-04-22 20:47:00,
2013-04-22 16:57:00,82.9,70.0,29.89,SSW,203,1.6,3.1,65,0.00,,,0.25,WUHU216EASYWX,2013-04-22 20:57:00,
2013-04-22 17:07:00,81.7,70.5,29.89,South,180,0.7,2.2,69,0.00,,,0.25,WUHU216EASYWX,2013-04-22 21:07:00,
2013-04-22 17:18:00,81.1,71.8,29.89,NW,315,0.0,1.6,73,0.00,,,0.25,WUHU216EASYWX,2013-04-22 21:18:00,
2013-04-22 17:28:00,80.8,72.1,29.89,NE,45,3.1,4.5,75,0.01,,,0.25,WUHU216EASYWX,2013-04-22 21:28:00,
2013-04-22 17:38:00,80.2,72.0,29.89,NE,45,3.1,5.4,76,0.01,,,0.26,WUHU216EASYWX,2013-04-22 21:38:00,
2013-04-22 17:48:00,81.1,70.5,29.89,North,0,4.5,9.2,70,0.01,,,0.26,WUHU216EASYWX,2013-04-22 21:48:00,
2013-04-22 17:53:00,82.6,70.2,29.89,NE,45,4.5,6.9,66,0.01,,,0.26,WUHU216EASYWX,2013-04-22 21:53:00,
2013-04-22 17:58:00,82.6,70.2,29.89,NE,45,4.5,6.9,66,0.01,,,0.26,WUHU216EASYWX,2013-04-22 21:58:00,
2013-04-22 18:07:00,82.6,73.9,29.89,East,90,3.1,4.5,75,0.01,,,0.26,WUHU216EASYWX,2013-04-22 22:07:00,
2013-04-22 18:17:00,83.7,73.8,29.90,SE,135,3.1,5.4,72,0.01,,,0.26,WUHU216EASYWX,2013-04-22 22:17:00,
2013-04-22 18:27:00,81.0,73.9,29.91,NE,45,1.6,3.8,79,0.00,,,0.26,WUHU216EASYWX,2013-04-22 22:27:00,
2013-04-22 18:38:00,81.0,72.7,29.90,NE,45,3.1,7.6,76,0.00,,,0.26,WUHU216EASYWX,2013-04-22 22:38:00,
2013-04-22 18:48:00,81.5,68.7,29.91,North,0,7.6,12.1,65,0.00,,,0.26,WUHU216EASYWX,2013-04-22 22:48:00,
2013-04-22 18:53:00,82.8,68.5,29.91,North,0,5.4,7.6,62,0.00,,,0.26,WUHU216EASYWX,2013-04-22 22:53:00,
2013-04-22 18:58:00,82.8,68.5,29.91,North,0,5.4,7.6,62,0.00,,,0.26,WUHU216EASYWX,2013-04-22 22:58:00,
2013-04-22 19:08:00,83.1,69.3,29.91,NE,45,2.2,5.4,63,0.00,,,0.26,WUHU216EASYWX,2013-04-22 23:08:00,
2013-04-22 19:13:00,81.5,69.6,29.92,North,0,6.0,8.3,67,0.00,,,0.26,WUHU216EASYWX,2013-04-22 23:13:00,
2013-04-22 19:18:00,81.5,69.6,29.92,North,0,6.0,8.3,67,0.00,,,0.26,WUHU216EASYWX,2013-04-22 23:18:00,
2013-04-22 19:28:00,80.8,69.3,29.92,NE,45,6.0,11.4,68,0.00,,,0.26,WUHU216EASYWX,2013-04-22 23:28:00,
2013-04-22 19:33:00,80.2,69.3,29.92,East,90,6.9,9.2,69,0.00,,,0.26,WUHU216EASYWX,2013-04-22 23:33:00,
2013-04-22 19:38:00,80.2,69.3,29.92,East,90,6.9,9.2,69,0.00,,,0.26,WUHU216EASYWX,2013-04-22 23:38:00,
2013-04-22 19:43:00,79.9,68.9,29.93,North,0,6.0,8.3,69,0.00,,,0.26,WUHU216EASYWX,2013-04-22 23:43:00,
2013-04-22 19:48:00,79.9,68.9,29.93,North,0,6.0,8.3,69,0.00,,,0.26,WUHU216EASYWX,2013-04-22 23:48:00,
2013-04-22 19:58:00,79.3,69.3,29.93,NE,45,3.1,6.0,71,0.00,,,0.26,WUHU216EASYWX,2013-04-22 23:58:00,
2013-04-22 20:03:00,79.0,68.9,29.93,North,0,3.8,6.0,71,0.00,,,0.26,WUHU216EASYWX,2013-04-23 00:03:00,
2013-04-22 20:08:00,79.0,68.9,29.93,North,0,3.8,6.0,71,0.00,,,0.26,WUHU216EASYWX,2013-04-23 00:08:00,
2013-04-22 20:18:00,78.6,68.9,29.94,NNE,23,3.1,4.5,72,0.00,,,0.26,WUHU216EASYWX,2013-04-23 00:18:00,
2013-04-22 20:23:00,78.4,69.4,29.94,NE,45,3.8,6.9,74,0.00,,,0.26,WUHU216EASYWX,2013-04-23 00:23:00,
2013-04-22 20:28:00,78.4,69.4,29.94,NE,45,3.8,6.9,74,0.00,,,0.26,WUHU216EASYWX,2013-04-23 00:28:00,
2013-04-22 20:33:00,78.3,69.3,29.95,NE,45,2.2,3.8,74,0.00,,,0.26,WUHU216EASYWX,2013-04-23 00:33:00,
2013-04-22 20:38:00,78.3,69.3,29.95,NE,45,2.2,3.8,74,0.00,,,0.26,WUHU216EASYWX,2013-04-23 00:38:00,
2013-04-22 20:47:00,78.1,69.1,29.95,NE,45,5.4,7.6,74,0.00,,,0.26,WUHU216EASYWX,2013-04-23 00:47:00,
2013-04-22 20:57:00,77.9,69.4,29.95,NNE,23,2.2,4.5,75,0.00,,,0.26,WUHU216EASYWX,2013-04-23 00:57:00,
2013-04-22 21:07:00,77.7,69.3,29.95,NE,45,6.9,13.7,75,0.00,,,0.26,WUHU216EASYWX,2013-04-23 01:07:00,
2013-04-22 21:13:00,77.7,69.6,29.96,NE,45,5.4,9.2,76,0.00,,,0.26,WUHU216EASYWX,2013-04-23 01:13:00,
2013-04-22 21:18:00,77.7,69.6,29.96,NE,45,5.4,9.2,76,0.00,,,0.26,WUHU216EASYWX,2013-04-23 01:18:00,
2013-04-22 21:27:00,77.5,69.8,29.96,NE,45,6.0,13.7,77,0.00,,,0.26,WUHU216EASYWX,2013-04-23 01:27:00,
2013-04-22 21:38:00,77.2,70.2,29.97,NE,45,9.2,13.7,79,0.00,,,0.26,WUHU216EASYWX,2013-04-23 01:38:00,
2013-04-22 21:48:00,76.5,69.1,29.97,SE,135,7.6,14.6,78,0.00,,,0.26,WUHU216EASYWX,2013-04-23 01:48:00,
2013-04-22 21:58:00,75.9,69.4,29.98,NNE,23,6.9,13.7,80,0.00,,,0.26,WUHU216EASYWX,2013-04-23 01:58:00,
2013-04-22 22:03:00,75.7,70.0,29.98,NE,45,9.2,16.8,82,0.00,,,0.26,WUHU216EASYWX,2013-04-23 02:03:00,
2013-04-22 22:08:00,75.7,70.0,29.98,NE,45,9.2,16.8,82,0.00,,,0.26,WUHU216EASYWX,2013-04-23 02:08:00,
2013-04-22 22:17:00,75.2,69.8,29.98,East,90,9.9,16.8,83,0.00,,,0.26,WUHU216EASYWX,2013-04-23 02:17:00,
2013-04-22 22:27:00,75.0,70.3,29.99,NE,45,7.6,15.2,85,0.00,,,0.26,WUHU216EASYWX,2013-04-23 02:27:00,
2013-04-22 22:37:00,74.7,70.2,29.99,NE,45,9.9,15.2,86,0.00,,,0.26,WUHU216EASYWX,2013-04-23 02:37:00,
2013-04-22 22:47:00,74.5,70.3,29.99,NE,45,4.5,8.3,87,0.00,,,0.26,WUHU216EASYWX,2013-04-23 02:47:00,
2013-04-22 22:57:00,74.3,70.2,29.99,NE,45,6.9,13.0,87,0.00,,,0.26,WUHU216EASYWX,2013-04-23 02:57:00,
2013-04-22 23:08:00,74.1,69.8,30.00,NE,45,12.1,16.8,86,0.00,,,0.26,WUHU216EASYWX,2013-04-23 03:08:00,
2013-04-22 23:13:00,73.9,69.8,29.99,NNE,23,9.2,15.2,87,0.00,,,0.26,WUHU216EASYWX,2013-04-23 03:13:00,
2013-04-22 23:18:00,73.9,69.8,29.99,NNE,23,9.2,15.2,87,0.00,,,0.26,WUHU216EASYWX,2013-04-23 03:18:00,
2013-04-22 23:28:00,73.8,69.6,29.99,NE,45,6.0,9.2,87,0.00,,,0.26,WUHU216EASYWX,2013-04-23 03:28:00,
2013-04-22 23:38:00,73.4,70.0,29.99,NNE,23,8.3,12.1,89,0.00,,,0.26,WUHU216EASYWX,2013-04-23 03:38:00,
2013-04-22 23:48:00,73.0,70.0,29.99,East,90,6.9,9.9,90,0.00,,,0.26,WUHU216EASYWX,2013-04-23 03:48:00,
2013-04-22 23:58:00,72.7,70.3,29.99,East,90,4.5,6.9,92,0.00,,,0.26,WUHU216EASYWX,2013-04-23 03:58:00,